sensor_id;sensor_type;location;lat;lon;timestamp;temperature;humidity
15288;DHT22;7745;48.708;9.026;2023-02-01T00:01:51;3.10;99.90
15288;DHT22;7745;48.708;9.026;2023-02-01T00:04:18;3.00;99.90
15288;DHT22;7745;48.708;9.026;2023-02-01T00:06:44;3.00;99.90
15288;DHT22;7745;48.708;9.026;2023-02-01T00:09:12;3.00;99.90
15288;DHT22;7745;48.708;9.026;2023-02-01T00:11:39;3.00;99.90
15288;DHT22;7745;48.708;9.026;2023-02-01T00:14:06;3.00;99.90
15288;DHT22;7745;48.708;9.026;2023-02-01T00:16:34;3.10;99.90
15288;DHT22;7745;48.708;9.026;2023-02-01T00:19:02;3.10;99.90
15288;DHT22;7745;48.708;9.026;2023-02-01T00:21:30;3.10;99.90
15288;DHT22;7745;48.708;9.026;2023-02-01T00:23:57;3.10;99.90
15288;DHT22;7745;48.708;9.026;2023-02-01T00:26:30;3.10;99.90
15288;DHT22;7745;48.708;9.026;2023-02-01T00:28:58;3.10;99.90
15288;DHT22;7745;48.708;9.026;2023-02-01T00:31:25;3.10;99.90
15288;DHT22;7745;48.708;9.026;2023-02-01T00:33:51;3.10;99.90
15288;DHT22;7745;48.708;9.026;2023-02-01T00:36:18;3.10;99.90
15288;DHT22;7745;48.708;9.026;2023-02-01T00:38:45;3.10;99.90
15288;DHT22;7745;48.708;9.026;2023-02-01T00:41:14;3.10;99.90
15288;DHT22;7745;48.708;9.026;2023-02-01T00:43:43;3.10;99.90
15288;DHT22;7745;48.708;9.026;2023-02-01T00:46:11;3.10;99.90
15288;DHT22;7745;48.708;9.026;2023-02-01T00:48:38;3.10;99.90
15288;DHT22;7745;48.708;9.026;2023-02-01T00:51:07;3.10;99.90
15288;DHT22;7745;48.708;9.026;2023-02-01T00:53:35;3.10;99.90
15288;DHT22;7745;48.708;9.026;2023-02-01T00:56:02;3.10;99.90
15288;DHT22;7745;48.708;9.026;2023-02-01T00:58:29;3.10;99.90
15288;DHT22;7745;48.708;9.026;2023-02-01T01:01:07;3.10;99.90
15288;DHT22;7745;48.708;9.026;2023-02-01T01:03:36;3.10;99.90
15288;DHT22;7745;48.708;9.026;2023-02-01T01:06:06;3.10;99.90
15288;DHT22;7745;48.708;9.026;2023-02-01T01:08:33;3.10;99.90
15288;DHT22;7745;48.708;9.026;2023-02-01T01:11:04;3.10;99.90
15288;DHT22;7745;48.708;9.026;2023-02-01T01:13:31;3.10;99.90
15288;DHT22;7745;48.708;9.026;2023-02-01T01:15:59;3.10;99.90
15288;DHT22;7745;48.708;9.026;2023-02-01T01:18:29;3.10;99.90
15288;DHT22;7745;48.708;9.026;2023-02-01T01:20:56;3.50;99.90
15288;DHT22;7745;48.708;9.026;2023-02-01T01:23:23;3.10;99.90
15288;DHT22;7745;48.708;9.026;2023-02-01T01:25:50;3.10;99.90
15288;DHT22;7745;48.708;9.026;2023-02-01T01:28:17;3.10;99.90
15288;DHT22;7745;48.708;9.026;2023-02-01T01:30:44;3.10;99.90
15288;DHT22;7745;48.708;9.026;2023-02-01T01:33:11;3.10;99.90
15288;DHT22;7745;48.708;9.026;2023-02-01T01:35:39;3.10;99.90
15288;DHT22;7745;48.708;9.026;2023-02-01T01:38:06;3.10;99.90
15288;DHT22;7745;48.708;9.026;2023-02-01T01:40:33;3.10;99.90
15288;DHT22;7745;48.708;9.026;2023-02-01T01:42:59;3.10;99.90
15288;DHT22;7745;48.708;9.026;2023-02-01T01:45:30;3.20;99.90
15288;DHT22;7745;48.708;9.026;2023-02-01T01:47:59;3.10;99.90
15288;DHT22;7745;48.708;9.026;2023-02-01T01:50:29;3.10;99.90
15288;DHT22;7745;48.708;9.026;2023-02-01T01:53:01;3.10;99.90
15288;DHT22;7745;48.708;9.026;2023-02-01T01:55:32;3.20;99.90
15288;DHT22;7745;48.708;9.026;2023-02-01T01:58:02;3.20;99.90
15288;DHT22;7745;48.708;9.026;2023-02-01T02:00:31;3.10;99.90
15288;DHT22;7745;48.708;9.026;2023-02-01T02:03:02;3.30;99.90
15288;DHT22;7745;48.708;9.026;2023-02-01T02:05:30;3.10;99.90
15288;DHT22;7745;48.708;9.026;2023-02-01T02:07:59;3.20;99.90
15288;DHT22;7745;48.708;9.026;2023-02-01T02:10:27;3.10;99.90
15288;DHT22;7745;48.708;9.026;2023-02-01T02:13:08;3.10;99.90
15288;DHT22;7745;48.708;9.026;2023-02-01T02:15:37;3.10;99.90
15288;DHT22;7745;48.708;9.026;2023-02-01T02:18:12;3.10;99.90
15288;DHT22;7745;48.708;9.026;2023-02-01T02:21:04;3.10;99.90
15288;DHT22;7745;48.708;9.026;2023-02-01T02:24:02;3.10;99.90
15288;DHT22;7745;48.708;9.026;2023-02-01T02:27:00;3.10;99.90
15288;DHT22;7745;48.708;9.026;2023-02-01T02:35:29;3.20;99.90
15288;DHT22;7745;48.708;9.026;2023-02-01T02:38:05;3.20;99.90
15288;DHT22;7745;48.708;9.026;2023-02-01T02:40:42;3.20;99.90
15288;DHT22;7745;48.708;9.026;2023-02-01T02:43:16;3.20;99.90
15288;DHT22;7745;48.708;9.026;2023-02-01T02:46:06;3.20;99.90
15288;DHT22;7745;48.708;9.026;2023-02-01T02:48:58;3.20;99.90
15288;DHT22;7745;48.708;9.026;2023-02-01T02:51:30;3.20;99.90
15288;DHT22;7745;48.708;9.026;2023-02-01T02:54:19;3.20;99.90
15288;DHT22;7745;48.708;9.026;2023-02-01T02:57:08;3.30;99.90
15288;DHT22;7745;48.708;9.026;2023-02-01T02:59:55;3.30;99.90
15288;DHT22;7745;48.708;9.026;2023-02-01T03:02:41;3.30;99.90
15288;DHT22;7745;48.708;9.026;2023-02-01T03:05:25;3.30;99.90
15288;DHT22;7745;48.708;9.026;2023-02-01T03:08:03;3.30;99.90
15288;DHT22;7745;48.708;9.026;2023-02-01T03:10:37;3.30;99.90
15288;DHT22;7745;48.708;9.026;2023-02-01T03:13:11;3.30;99.90
15288;DHT22;7745;48.708;9.026;2023-02-01T03:15:42;3.30;99.90
15288;DHT22;7745;48.708;9.026;2023-02-01T03:18:15;3.40;99.90
15288;DHT22;7745;48.708;9.026;2023-02-01T03:20:46;3.40;99.90
15288;DHT22;7745;48.708;9.026;2023-02-01T03:23:18;3.40;99.90
15288;DHT22;7745;48.708;9.026;2023-02-01T03:25:47;3.40;99.90
15288;DHT22;7745;48.708;9.026;2023-02-01T03:28:15;3.30;99.90
15288;DHT22;7745;48.708;9.026;2023-02-01T03:30:46;3.40;99.90
15288;DHT22;7745;48.708;9.026;2023-02-01T03:33:16;3.40;99.90
15288;DHT22;7745;48.708;9.026;2023-02-01T03:35:55;3.40;99.90
15288;DHT22;7745;48.708;9.026;2023-02-01T03:38:27;3.40;99.90
15288;DHT22;7745;48.708;9.026;2023-02-01T03:41:01;3.40;99.90
15288;DHT22;7745;48.708;9.026;2023-02-01T03:43:32;3.40;99.90
15288;DHT22;7745;48.708;9.026;2023-02-01T03:46:06;3.40;99.90
15288;DHT22;7745;48.708;9.026;2023-02-01T03:48:36;3.40;99.90
15288;DHT22;7745;48.708;9.026;2023-02-01T03:51:05;3.40;99.90
15288;DHT22;7745;48.708;9.026;2023-02-01T03:53:35;3.40;99.90
15288;DHT22;7745;48.708;9.026;2023-02-01T03:56:03;3.40;99.90
15288;DHT22;7745;48.708;9.026;2023-02-01T03:58:30;3.40;99.90
15288;DHT22;7745;48.708;9.026;2023-02-01T04:00:59;3.40;99.90
15288;DHT22;7745;48.708;9.026;2023-02-01T04:03:27;3.40;99.90
15288;DHT22;7745;48.708;9.026;2023-02-01T04:05:54;3.40;99.90
15288;DHT22;7745;48.708;9.026;2023-02-01T04:08:21;3.40;99.90
15288;DHT22;7745;48.708;9.026;2023-02-01T04:10:50;3.40;99.90
15288;DHT22;7745;48.708;9.026;2023-02-01T04:13:17;3.40;99.90
15288;DHT22;7745;48.708;9.026;2023-02-01T04:15:43;3.50;99.90
15288;DHT22;7745;48.708;9.026;2023-02-01T04:18:11;3.50;99.90
15288;DHT22;7745;48.708;9.026;2023-02-01T04:20:37;3.50;99.90
15288;DHT22;7745;48.708;9.026;2023-02-01T04:23:04;3.50;99.90
15288;DHT22;7745;48.708;9.026;2023-02-01T04:25:31;3.50;99.90
15288;DHT22;7745;48.708;9.026;2023-02-01T04:27:59;3.60;99.90
15288;DHT22;7745;48.708;9.026;2023-02-01T04:30:26;3.70;99.90
15288;DHT22;7745;48.708;9.026;2023-02-01T04:32:53;3.60;99.90
15288;DHT22;7745;48.708;9.026;2023-02-01T04:35:19;3.60;99.90
15288;DHT22;7745;48.708;9.026;2023-02-01T04:37:47;3.60;99.90
15288;DHT22;7745;48.708;9.026;2023-02-01T04:40:14;3.60;99.90
15288;DHT22;7745;48.708;9.026;2023-02-01T04:42:41;3.60;99.90
15288;DHT22;7745;48.708;9.026;2023-02-01T04:45:10;3.60;99.90
15288;DHT22;7745;48.708;9.026;2023-02-01T04:47:37;3.50;99.90
15288;DHT22;7745;48.708;9.026;2023-02-01T04:50:04;3.60;99.90
15288;DHT22;7745;48.708;9.026;2023-02-01T04:52:33;3.50;99.90
15288;DHT22;7745;48.708;9.026;2023-02-01T04:54:59;3.50;99.90
15288;DHT22;7745;48.708;9.026;2023-02-01T04:57:28;3.50;99.90
15288;DHT22;7745;48.708;9.026;2023-02-01T04:59:55;3.50;99.90
15288;DHT22;7745;48.708;9.026;2023-02-01T05:02:23;3.50;99.90
15288;DHT22;7745;48.708;9.026;2023-02-01T05:04:50;3.50;99.90
15288;DHT22;7745;48.708;9.026;2023-02-01T05:07:17;3.50;99.90
15288;DHT22;7745;48.708;9.026;2023-02-01T05:09:43;3.50;99.90
15288;DHT22;7745;48.708;9.026;2023-02-01T05:12:10;3.50;99.90
15288;DHT22;7745;48.708;9.026;2023-02-01T05:14:54;3.50;99.90
15288;DHT22;7745;48.708;9.026;2023-02-01T05:17:23;3.50;99.90
15288;DHT22;7745;48.708;9.026;2023-02-01T05:19:49;3.50;99.90
15288;DHT22;7745;48.708;9.026;2023-02-01T05:22:16;3.50;99.90
15288;DHT22;7745;48.708;9.026;2023-02-01T05:24:43;3.40;99.90
15288;DHT22;7745;48.708;9.026;2023-02-01T05:27:10;3.50;99.90
15288;DHT22;7745;48.708;9.026;2023-02-01T05:29:36;3.40;99.90
15288;DHT22;7745;48.708;9.026;2023-02-01T05:32:03;3.80;99.90
15288;DHT22;7745;48.708;9.026;2023-02-01T05:34:32;3.50;99.90
15288;DHT22;7745;48.708;9.026;2023-02-01T05:36:58;3.50;99.90
15288;DHT22;7745;48.708;9.026;2023-02-01T05:39:25;3.50;99.90
15288;DHT22;7745;48.708;9.026;2023-02-01T05:41:52;3.50;99.90
15288;DHT22;7745;48.708;9.026;2023-02-01T05:44:19;3.50;99.90
15288;DHT22;7745;48.708;9.026;2023-02-01T05:46:46;3.50;99.90
15288;DHT22;7745;48.708;9.026;2023-02-01T05:49:12;3.40;99.90
15288;DHT22;7745;48.708;9.026;2023-02-01T05:51:40;3.50;99.90
15288;DHT22;7745;48.708;9.026;2023-02-01T05:54:08;3.40;99.90
15288;DHT22;7745;48.708;9.026;2023-02-01T05:56:35;3.50;99.90
15288;DHT22;7745;48.708;9.026;2023-02-01T05:59:02;3.50;99.90
15288;DHT22;7745;48.708;9.026;2023-02-01T06:01:29;3.50;99.90
15288;DHT22;7745;48.708;9.026;2023-02-01T06:03:55;3.50;99.90
15288;DHT22;7745;48.708;9.026;2023-02-01T06:06:22;3.50;99.90
15288;DHT22;7745;48.708;9.026;2023-02-01T06:08:50;3.50;99.90
15288;DHT22;7745;48.708;9.026;2023-02-01T06:11:17;3.50;99.90
15288;DHT22;7745;48.708;9.026;2023-02-01T06:13:44;3.50;99.90
15288;DHT22;7745;48.708;9.026;2023-02-01T06:16:10;3.40;99.90
15288;DHT22;7745;48.708;9.026;2023-02-01T06:18:37;3.40;99.90
15288;DHT22;7745;48.708;9.026;2023-02-01T06:21:04;3.40;99.90
15288;DHT22;7745;48.708;9.026;2023-02-01T06:23:31;3.40;99.90
15288;DHT22;7745;48.708;9.026;2023-02-01T06:26:02;3.40;99.90
15288;DHT22;7745;48.708;9.026;2023-02-01T06:28:30;3.40;99.90
15288;DHT22;7745;48.708;9.026;2023-02-01T06:30:57;4.00;99.90
15288;DHT22;7745;48.708;9.026;2023-02-01T06:33:24;3.50;99.90
15288;DHT22;7745;48.708;9.026;2023-02-01T06:35:56;3.80;99.90
15288;DHT22;7745;48.708;9.026;2023-02-01T06:38:23;3.50;99.90
15288;DHT22;7745;48.708;9.026;2023-02-01T06:40:52;3.50;99.90
15288;DHT22;7745;48.708;9.026;2023-02-01T06:43:20;3.50;99.90
15288;DHT22;7745;48.708;9.026;2023-02-01T06:45:47;3.60;99.90
15288;DHT22;7745;48.708;9.026;2023-02-01T06:48:14;3.60;99.90
15288;DHT22;7745;48.708;9.026;2023-02-01T06:50:41;3.60;99.90
15288;DHT22;7745;48.708;9.026;2023-02-01T06:53:07;3.60;99.90
15288;DHT22;7745;48.708;9.026;2023-02-01T06:55:34;4.10;99.90
15288;DHT22;7745;48.708;9.026;2023-02-01T06:58:01;3.60;99.90
15288;DHT22;7745;48.708;9.026;2023-02-01T07:00:31;3.60;99.90
15288;DHT22;7745;48.708;9.026;2023-02-01T07:02:58;3.90;99.90
15288;DHT22;7745;48.708;9.026;2023-02-01T07:05:25;3.60;99.90
15288;DHT22;7745;48.708;9.026;2023-02-01T07:07:52;3.30;99.90
15288;DHT22;7745;48.708;9.026;2023-02-01T07:10:19;3.30;99.90
15288;DHT22;7745;48.708;9.026;2023-02-01T07:12:45;3.60;99.90
15288;DHT22;7745;48.708;9.026;2023-02-01T07:15:12;3.70;99.90
15288;DHT22;7745;48.708;9.026;2023-02-01T07:17:40;3.70;99.90
15288;DHT22;7745;48.708;9.026;2023-02-01T07:20:08;3.70;99.90
15288;DHT22;7745;48.708;9.026;2023-02-01T07:22:35;3.70;99.90
15288;DHT22;7745;48.708;9.026;2023-02-01T07:25:03;4.50;99.90
15288;DHT22;7745;48.708;9.026;2023-02-01T07:27:34;3.70;99.90
15288;DHT22;7745;48.708;9.026;2023-02-01T07:30:01;3.70;99.90
15288;DHT22;7745;48.708;9.026;2023-02-01T07:32:28;3.70;99.90
15288;DHT22;7745;48.708;9.026;2023-02-01T07:34:56;3.70;99.90
15288;DHT22;7745;48.708;9.026;2023-02-01T07:37:23;3.80;99.90
15288;DHT22;7745;48.708;9.026;2023-02-01T07:39:50;3.80;99.90
15288;DHT22;7745;48.708;9.026;2023-02-01T07:42:17;3.80;99.90
15288;DHT22;7745;48.708;9.026;2023-02-01T07:44:44;3.80;99.90
15288;DHT22;7745;48.708;9.026;2023-02-01T07:47:12;3.90;99.90
15288;DHT22;7745;48.708;9.026;2023-02-01T07:49:39;3.90;99.90
15288;DHT22;7745;48.708;9.026;2023-02-01T07:52:07;4.00;99.90
15288;DHT22;7745;48.708;9.026;2023-02-01T07:54:34;4.10;99.90
15288;DHT22;7745;48.708;9.026;2023-02-01T07:57:02;4.20;99.90
15288;DHT22;7745;48.708;9.026;2023-02-01T07:59:29;4.20;99.90
15288;DHT22;7745;48.708;9.026;2023-02-01T08:01:55;4.30;99.90
15288;DHT22;7745;48.708;9.026;2023-02-01T08:04:21;4.50;99.90
15288;DHT22;7745;48.708;9.026;2023-02-01T08:06:48;4.40;99.90
15288;DHT22;7745;48.708;9.026;2023-02-01T08:09:16;4.40;99.90
15288;DHT22;7745;48.708;9.026;2023-02-01T08:11:43;4.40;99.90
15288;DHT22;7745;48.708;9.026;2023-02-01T08:14:10;4.30;99.90
15288;DHT22;7745;48.708;9.026;2023-02-01T08:16:36;4.40;99.90
15288;DHT22;7745;48.708;9.026;2023-02-01T08:19:04;4.40;99.90
15288;DHT22;7745;48.708;9.026;2023-02-01T08:21:31;4.40;99.90
15288;DHT22;7745;48.708;9.026;2023-02-01T08:24:04;4.40;99.90
15288;DHT22;7745;48.708;9.026;2023-02-01T08:26:32;4.40;99.90
15288;DHT22;7745;48.708;9.026;2023-02-01T08:29:01;4.40;99.90
15288;DHT22;7745;48.708;9.026;2023-02-01T08:31:29;4.70;99.90
15288;DHT22;7745;48.708;9.026;2023-02-01T08:33:57;4.60;99.90
15288;DHT22;7745;48.708;9.026;2023-02-01T08:36:25;4.30;99.90
15288;DHT22;7745;48.708;9.026;2023-02-01T08:38:52;4.40;99.90
15288;DHT22;7745;48.708;9.026;2023-02-01T08:41:22;4.40;99.90
15288;DHT22;7745;48.708;9.026;2023-02-01T08:43:50;4.50;99.90
15288;DHT22;7745;48.708;9.026;2023-02-01T08:46:18;4.60;99.90
15288;DHT22;7745;48.708;9.026;2023-02-01T08:48:45;4.70;99.90
15288;DHT22;7745;48.708;9.026;2023-02-01T08:51:14;4.80;99.90
15288;DHT22;7745;48.708;9.026;2023-02-01T08:53:42;4.80;99.90
15288;DHT22;7745;48.708;9.026;2023-02-01T08:56:10;4.80;99.90
15288;DHT22;7745;48.708;9.026;2023-02-01T08:58:38;4.80;99.90
15288;DHT22;7745;48.708;9.026;2023-02-01T09:01:07;4.80;99.90
15288;DHT22;7745;48.708;9.026;2023-02-01T09:03:34;4.80;99.90
15288;DHT22;7745;48.708;9.026;2023-02-01T09:06:02;4.80;99.90
15288;DHT22;7745;48.708;9.026;2023-02-01T09:08:32;5.00;99.90
15288;DHT22;7745;48.708;9.026;2023-02-01T09:10:59;4.90;99.90
15288;DHT22;7745;48.708;9.026;2023-02-01T09:13:26;4.80;99.90
15288;DHT22;7745;48.708;9.026;2023-02-01T09:15:53;4.80;99.90
15288;DHT22;7745;48.708;9.026;2023-02-01T09:18:22;5.20;99.90
15288;DHT22;7745;48.708;9.026;2023-02-01T09:20:48;4.90;99.90
15288;DHT22;7745;48.708;9.026;2023-02-01T09:23:15;4.80;99.90
15288;DHT22;7745;48.708;9.026;2023-02-01T09:25:42;4.80;99.90
15288;DHT22;7745;48.708;9.026;2023-02-01T09:28:09;4.80;99.90
15288;DHT22;7745;48.708;9.026;2023-02-01T09:30:36;4.80;99.90
15288;DHT22;7745;48.708;9.026;2023-02-01T09:33:04;4.80;99.90
15288;DHT22;7745;48.708;9.026;2023-02-01T09:35:32;4.80;99.90
15288;DHT22;7745;48.708;9.026;2023-02-01T09:37:59;4.80;99.90
15288;DHT22;7745;48.708;9.026;2023-02-01T09:40:26;4.80;99.90
15288;DHT22;7745;48.708;9.026;2023-02-01T09:43:11;4.80;99.90
15288;DHT22;7745;48.708;9.026;2023-02-01T09:45:47;4.90;99.90
15288;DHT22;7745;48.708;9.026;2023-02-01T09:48:20;5.00;99.90
15288;DHT22;7745;48.708;9.026;2023-02-01T09:50:54;5.10;99.90
15288;DHT22;7745;48.708;9.026;2023-02-01T09:53:25;5.10;99.90
15288;DHT22;7745;48.708;9.026;2023-02-01T09:55:55;5.10;99.90
15288;DHT22;7745;48.708;9.026;2023-02-01T09:58:27;5.10;99.90
15288;DHT22;7745;48.708;9.026;2023-02-01T10:00:57;5.20;99.90
15288;DHT22;7745;48.708;9.026;2023-02-01T10:03:26;5.30;99.90
15288;DHT22;7745;48.708;9.026;2023-02-01T10:06:10;5.30;99.90
15288;DHT22;7745;48.708;9.026;2023-02-01T10:11:47;5.40;99.90
15288;DHT22;7745;48.708;9.026;2023-02-01T10:14:51;5.40;99.90
15288;DHT22;7745;48.708;9.026;2023-02-01T10:17:33;5.40;99.90
15288;DHT22;7745;48.708;9.026;2023-02-01T10:20:07;5.40;99.90
15288;DHT22;7745;48.708;9.026;2023-02-01T10:22:43;5.60;99.90
15288;DHT22;7745;48.708;9.026;2023-02-01T10:25:16;5.60;99.90
15288;DHT22;7745;48.708;9.026;2023-02-01T10:27:45;5.70;99.90
15288;DHT22;7745;48.708;9.026;2023-02-01T10:30:18;5.30;99.90
15288;DHT22;7745;48.708;9.026;2023-02-01T10:32:47;5.30;99.90
15288;DHT22;7745;48.708;9.026;2023-02-01T10:35:17;5.30;99.90
15288;DHT22;7745;48.708;9.026;2023-02-01T10:37:47;5.30;99.90
15288;DHT22;7745;48.708;9.026;2023-02-01T10:40:17;5.30;99.90
15288;DHT22;7745;48.708;9.026;2023-02-01T10:42:47;5.40;99.90
15288;DHT22;7745;48.708;9.026;2023-02-01T10:45:16;5.40;99.90
15288;DHT22;7745;48.708;9.026;2023-02-01T10:47:44;5.40;99.90
15288;DHT22;7745;48.708;9.026;2023-02-01T10:50:19;5.40;99.90
15288;DHT22;7745;48.708;9.026;2023-02-01T10:52:54;5.40;99.90
15288;DHT22;7745;48.708;9.026;2023-02-01T10:55:47;5.70;99.90
15288;DHT22;7745;48.708;9.026;2023-02-01T10:58:16;5.50;99.90
15288;DHT22;7745;48.708;9.026;2023-02-01T11:00:46;5.50;99.90
15288;DHT22;7745;48.708;9.026;2023-02-01T11:03:22;5.50;99.90
15288;DHT22;7745;48.708;9.026;2023-02-01T11:06:01;5.50;99.90
15288;DHT22;7745;48.708;9.026;2023-02-01T11:08:32;5.50;99.90
15288;DHT22;7745;48.708;9.026;2023-02-01T11:11:12;5.60;99.90
15288;DHT22;7745;48.708;9.026;2023-02-01T11:13:40;5.80;99.90
15288;DHT22;7745;48.708;9.026;2023-02-01T11:16:12;5.60;99.90
15288;DHT22;7745;48.708;9.026;2023-02-01T11:18:39;5.50;99.90
15288;DHT22;7745;48.708;9.026;2023-02-01T11:21:08;5.50;99.90
15288;DHT22;7745;48.708;9.026;2023-02-01T11:23:42;5.50;99.90
15288;DHT22;7745;48.708;9.026;2023-02-01T11:26:13;5.50;99.90
15288;DHT22;7745;48.708;9.026;2023-02-01T11:28:46;5.60;99.90
15288;DHT22;7745;48.708;9.026;2023-02-01T11:31:16;5.50;99.90
15288;DHT22;7745;48.708;9.026;2023-02-01T11:33:48;5.50;99.90
15288;DHT22;7745;48.708;9.026;2023-02-01T11:36:17;5.50;99.90
15288;DHT22;7745;48.708;9.026;2023-02-01T11:38:52;5.50;99.90
15288;DHT22;7745;48.708;9.026;2023-02-01T11:41:22;5.50;99.90
15288;DHT22;7745;48.708;9.026;2023-02-01T11:43:55;5.50;99.90
15288;DHT22;7745;48.708;9.026;2023-02-01T11:46:24;5.50;99.90
15288;DHT22;7745;48.708;9.026;2023-02-01T11:48:55;5.50;99.90
15288;DHT22;7745;48.708;9.026;2023-02-01T11:51:41;5.50;99.90
15288;DHT22;7745;48.708;9.026;2023-02-01T11:54:36;5.50;99.90
15288;DHT22;7745;48.708;9.026;2023-02-01T11:57:17;5.50;99.90
15288;DHT22;7745;48.708;9.026;2023-02-01T12:00:06;5.50;99.90
15288;DHT22;7745;48.708;9.026;2023-02-01T12:02:55;5.50;99.90
15288;DHT22;7745;48.708;9.026;2023-02-01T12:05:34;5.50;99.90
15288;DHT22;7745;48.708;9.026;2023-02-01T12:08:31;5.50;99.90
15288;DHT22;7745;48.708;9.026;2023-02-01T12:11:34;5.50;99.90
15288;DHT22;7745;48.708;9.026;2023-02-01T12:14:19;5.50;99.90
15288;DHT22;7745;48.708;9.026;2023-02-01T12:17:03;5.50;99.90
15288;DHT22;7745;48.708;9.026;2023-02-01T12:19:46;5.50;99.90
15288;DHT22;7745;48.708;9.026;2023-02-01T12:22:30;5.50;99.90
15288;DHT22;7745;48.708;9.026;2023-02-01T12:25:31;5.40;99.90
15288;DHT22;7745;48.708;9.026;2023-02-01T12:28:24;5.40;99.90
15288;DHT22;7745;48.708;9.026;2023-02-01T12:31:23;5.50;99.90
15288;DHT22;7745;48.708;9.026;2023-02-01T12:34:07;5.40;99.90
15288;DHT22;7745;48.708;9.026;2023-02-01T12:36:43;5.40;99.90
15288;DHT22;7745;48.708;9.026;2023-02-01T12:39:21;5.40;99.90
15288;DHT22;7745;48.708;9.026;2023-02-01T12:41:56;5.30;99.90
15288;DHT22;7745;48.708;9.026;2023-02-01T12:44:35;5.30;99.90
15288;DHT22;7745;48.708;9.026;2023-02-01T12:47:07;5.30;99.90
15288;DHT22;7745;48.708;9.026;2023-02-01T12:49:45;5.30;99.90
15288;DHT22;7745;48.708;9.026;2023-02-01T12:52:18;5.30;99.90
15288;DHT22;7745;48.708;9.026;2023-02-01T12:54:50;5.70;99.90
15288;DHT22;7745;48.708;9.026;2023-02-01T12:57:25;5.40;99.90
15288;DHT22;7745;48.708;9.026;2023-02-01T12:59:59;5.40;99.90
15288;DHT22;7745;48.708;9.026;2023-02-01T13:02:32;5.40;99.90
15288;DHT22;7745;48.708;9.026;2023-02-01T13:05:04;5.40;99.90
15288;DHT22;7745;48.708;9.026;2023-02-01T13:07:38;5.40;99.90
15288;DHT22;7745;48.708;9.026;2023-02-01T13:10:14;5.40;99.90
15288;DHT22;7745;48.708;9.026;2023-02-01T13:12:47;5.60;99.90
15288;DHT22;7745;48.708;9.026;2023-02-01T13:15:21;5.60;99.90
15288;DHT22;7745;48.708;9.026;2023-02-01T13:17:50;5.40;99.90
15288;DHT22;7745;48.708;9.026;2023-02-01T13:20:26;5.40;99.90
15288;DHT22;7745;48.708;9.026;2023-02-01T13:23:05;5.40;99.90
15288;DHT22;7745;48.708;9.026;2023-02-01T13:25:42;5.40;99.90
15288;DHT22;7745;48.708;9.026;2023-02-01T13:28:14;6.30;99.90
15288;DHT22;7745;48.708;9.026;2023-02-01T13:34:22;5.30;99.90
15288;DHT22;7745;48.708;9.026;2023-02-01T13:37:01;5.30;99.90
15288;DHT22;7745;48.708;9.026;2023-02-01T13:39:56;5.80;99.90
15288;DHT22;7745;48.708;9.026;2023-02-01T13:42:29;5.30;99.90
15288;DHT22;7745;48.708;9.026;2023-02-01T13:45:00;5.50;99.90
15288;DHT22;7745;48.708;9.026;2023-02-01T13:47:33;5.60;99.90
15288;DHT22;7745;48.708;9.026;2023-02-01T13:50:04;5.30;99.90
15288;DHT22;7745;48.708;9.026;2023-02-01T13:52:41;5.60;99.90
15288;DHT22;7745;48.708;9.026;2023-02-01T13:55:26;5.30;99.90
15288;DHT22;7745;48.708;9.026;2023-02-01T13:58:03;5.30;99.90
15288;DHT22;7745;48.708;9.026;2023-02-01T14:00:32;5.80;99.90
15288;DHT22;7745;48.708;9.026;2023-02-01T14:03:10;5.50;99.90
15288;DHT22;7745;48.708;9.026;2023-02-01T14:08:44;5.30;99.90
15288;DHT22;7745;48.708;9.026;2023-02-01T14:11:38;5.30;99.90
15288;DHT22;7745;48.708;9.026;2023-02-01T14:17:34;5.70;99.90
15288;DHT22;7745;48.708;9.026;2023-02-01T14:26:43;5.30;99.90
15288;DHT22;7745;48.708;9.026;2023-02-01T14:29:24;5.30;99.90
15288;DHT22;7745;48.708;9.026;2023-02-01T14:32:01;5.40;99.90
15288;DHT22;7745;48.708;9.026;2023-02-01T14:34:37;5.20;99.90
15288;DHT22;7745;48.708;9.026;2023-02-01T14:37:10;5.50;99.90
15288;DHT22;7745;48.708;9.026;2023-02-01T14:39:52;5.20;99.90
15288;DHT22;7745;48.708;9.026;2023-02-01T14:42:25;5.20;99.90
15288;DHT22;7745;48.708;9.026;2023-02-01T14:44:53;5.20;99.90
15288;DHT22;7745;48.708;9.026;2023-02-01T14:47:31;5.40;99.90
15288;DHT22;7745;48.708;9.026;2023-02-01T14:50:26;5.20;99.90
15288;DHT22;7745;48.708;9.026;2023-02-01T14:53:21;5.20;99.90
15288;DHT22;7745;48.708;9.026;2023-02-01T14:55:52;5.20;99.90
15288;DHT22;7745;48.708;9.026;2023-02-01T14:58:30;5.20;99.90
15288;DHT22;7745;48.708;9.026;2023-02-01T15:01:01;5.20;99.90
15288;DHT22;7745;48.708;9.026;2023-02-01T15:03:43;5.20;99.90
15288;DHT22;7745;48.708;9.026;2023-02-01T15:06:31;5.30;99.90
15288;DHT22;7745;48.708;9.026;2023-02-01T15:09:01;5.20;99.90
15288;DHT22;7745;48.708;9.026;2023-02-01T15:11:29;5.20;99.90
15288;DHT22;7745;48.708;9.026;2023-02-01T15:13:57;5.30;99.90
15288;DHT22;7745;48.708;9.026;2023-02-01T15:16:26;5.20;99.90
15288;DHT22;7745;48.708;9.026;2023-02-01T15:19:10;5.20;99.90
15288;DHT22;7745;48.708;9.026;2023-02-01T15:21:45;5.20;99.90
15288;DHT22;7745;48.708;9.026;2023-02-01T15:24:17;5.20;99.90
15288;DHT22;7745;48.708;9.026;2023-02-01T15:26:45;5.30;99.90
15288;DHT22;7745;48.708;9.026;2023-02-01T15:29:14;5.40;99.90
15288;DHT22;7745;48.708;9.026;2023-02-01T15:31:43;5.30;99.90
15288;DHT22;7745;48.708;9.026;2023-02-01T15:34:11;5.60;99.90
15288;DHT22;7745;48.708;9.026;2023-02-01T15:36:38;5.70;99.90
15288;DHT22;7745;48.708;9.026;2023-02-01T15:39:17;5.30;99.90
15288;DHT22;7745;48.708;9.026;2023-02-01T15:41:52;5.60;99.90
15288;DHT22;7745;48.708;9.026;2023-02-01T15:44:29;5.30;99.90
15288;DHT22;7745;48.708;9.026;2023-02-01T15:46:57;5.30;99.90
15288;DHT22;7745;48.708;9.026;2023-02-01T15:49:28;5.30;99.90
15288;DHT22;7745;48.708;9.026;2023-02-01T15:51:56;5.20;99.90
15288;DHT22;7745;48.708;9.026;2023-02-01T15:54:26;5.20;99.90
15288;DHT22;7745;48.708;9.026;2023-02-01T15:56:59;5.20;99.90
15288;DHT22;7745;48.708;9.026;2023-02-01T15:59:32;5.20;99.90
15288;DHT22;7745;48.708;9.026;2023-02-01T16:02:01;5.20;99.90
15288;DHT22;7745;48.708;9.026;2023-02-01T16:04:29;5.20;99.90
15288;DHT22;7745;48.708;9.026;2023-02-01T16:06:58;5.10;99.90
15288;DHT22;7745;48.708;9.026;2023-02-01T16:09:37;5.40;99.90
15288;DHT22;7745;48.708;9.026;2023-02-01T16:12:22;5.10;99.90
15288;DHT22;7745;48.708;9.026;2023-02-01T16:14:52;5.10;99.90
15288;DHT22;7745;48.708;9.026;2023-02-01T16:17:18;5.00;99.90
15288;DHT22;7745;48.708;9.026;2023-02-01T16:19:45;5.00;99.90
15288;DHT22;7745;48.708;9.026;2023-02-01T16:22:14;5.30;99.90
15288;DHT22;7745;48.708;9.026;2023-02-01T16:24:41;5.20;99.90
15288;DHT22;7745;48.708;9.026;2023-02-01T16:27:08;5.40;99.90
15288;DHT22;7745;48.708;9.026;2023-02-01T16:33:05;5.00;99.90
15288;DHT22;7745;48.708;9.026;2023-02-01T16:35:41;5.00;99.90
15288;DHT22;7745;48.708;9.026;2023-02-01T16:38:36;5.00;99.90
15288;DHT22;7745;48.708;9.026;2023-02-01T16:41:29;5.20;99.90
15288;DHT22;7745;48.708;9.026;2023-02-01T16:44:29;5.00;99.90
15288;DHT22;7745;48.708;9.026;2023-02-01T16:53:24;5.10;99.90
15288;DHT22;7745;48.708;9.026;2023-02-01T16:59:37;5.10;99.90
15288;DHT22;7745;48.708;9.026;2023-02-01T17:02:21;4.90;99.90
15288;DHT22;7745;48.708;9.026;2023-02-01T17:05:03;5.00;99.90
15288;DHT22;7745;48.708;9.026;2023-02-01T17:08:17;4.90;99.90
15288;DHT22;7745;48.708;9.026;2023-02-01T17:14:21;5.00;99.90
15288;DHT22;7745;48.708;9.026;2023-02-01T17:17:08;4.60;99.90